createdAt,value
2023-01-29T00:00:25.586Z,99452.88
2023-01-29T00:03:10.970Z,99461.56
2023-01-29T00:05:55.695Z,99450.00
2023-01-29T00:08:40.863Z,99446.81
2023-01-29T00:11:25.540Z,99444.44
2023-01-29T00:14:10.153Z,99438.06
2023-01-29T00:16:55.126Z,99443.78
2023-01-29T00:19:39.524Z,99447.88
2023-01-29T00:22:24.918Z,99450.13
2023-01-29T00:25:10.924Z,99456.28
2023-01-29T00:27:55.983Z,99449.94
2023-01-29T00:30:41.445Z,99449.94
2023-01-29T00:33:28.156Z,99445.53
2023-01-29T00:36:14.943Z,99446.59
2023-01-29T00:39:01.979Z,99449.78
2023-01-29T00:42:07.248Z,99453.91
2023-01-29T00:44:59.614Z,99466.66
2023-01-29T00:47:44.199Z,99463.84
2023-01-29T00:50:30.266Z,99469.72
2023-01-29T00:53:14.753Z,99456.44
2023-01-29T00:56:00.107Z,99455.75
2023-01-29T00:58:44.536Z,99459.06
2023-01-29T01:01:47.985Z,99452.31
2023-01-29T01:04:35.012Z,99448.84
2023-01-29T01:07:19.698Z,99447.09
2023-01-29T01:10:22.605Z,99450.28
2023-01-29T01:13:07.344Z,99451.78
2023-01-29T01:15:52.850Z,99451.13
2023-01-29T01:18:38.248Z,99445.28
2023-01-29T01:21:23.408Z,99439.47
2023-01-29T01:24:08.108Z,99440.91
2023-01-29T01:26:52.916Z,99435.97
2023-01-29T01:29:38.392Z,99437.69
2023-01-29T01:32:23.269Z,99432.16
2023-01-29T01:35:10.481Z,99439.88
2023-01-29T01:37:55.303Z,99441.59
2023-01-29T01:40:45.221Z,99438.00
2023-01-29T01:43:48.261Z,99438.13
2023-01-29T01:46:37.331Z,99444.00
2023-01-29T01:49:23.838Z,99448.41
2023-01-29T01:52:09.312Z,99442.53
2023-01-29T01:54:54.393Z,99449.03
2023-01-29T01:57:40.566Z,99445.06
2023-01-29T02:00:26.291Z,99446.44
2023-01-29T02:03:30.634Z,99433.97
2023-01-29T02:06:34.443Z,99434.09
2023-01-29T02:09:38.148Z,99438.22
2023-01-29T02:12:23.625Z,99436.09
2023-01-29T02:15:09.170Z,99441.44
2023-01-29T02:17:54.015Z,99445.56
2023-01-29T02:20:43.343Z,99445.56
2023-01-29T02:23:48.136Z,99442.09
2023-01-29T02:26:59.472Z,99445.72
2023-01-29T02:29:52.166Z,99441.09
2023-01-29T02:32:54.481Z,99437.75
2023-01-29T02:35:50.199Z,99440.13
2023-01-29T02:38:47.207Z,99439.34
2023-01-29T02:41:41.491Z,99444.38
2023-01-29T02:44:46.896Z,99447.22
2023-01-29T02:47:39.395Z,99441.22
2023-01-29T02:50:45.144Z,99442.28
2023-01-29T02:54:01.578Z,99442.44
2023-01-29T02:56:59.150Z,99440.19
2023-01-29T03:00:46.828Z,99436.72
2023-01-29T03:03:39.891Z,99435.78
2023-01-29T03:06:37.505Z,99433.53
2023-01-29T03:09:27.677Z,99446.53
2023-01-29T03:12:28.416Z,99443.09
2023-01-29T03:15:24.699Z,99440.69
2023-01-29T03:18:30.034Z,99438.16
2023-01-29T03:21:48.783Z,99437.13
2023-01-29T03:25:08.048Z,99435.34
2023-01-29T03:28:17.982Z,99440.03
2023-01-29T03:31:27.035Z,99442.06
2023-01-29T03:34:24.058Z,99442.84
2023-01-29T03:37:27.184Z,99444.59
2023-01-29T03:40:13.615Z,99437.66
2023-01-29T03:43:25.870Z,99445.25
2023-01-29T03:46:22.519Z,99437.03
2023-01-29T03:49:51.970Z,99442.06
2023-01-29T03:53:07.838Z,99434.63
2023-01-29T03:56:06.384Z,99434.25
2023-01-29T03:59:18.536Z,99437.31
2023-01-29T04:02:31.327Z,99429.56
2023-01-29T04:05:22.139Z,99418.19
2023-01-29T04:08:27.031Z,99433.06
2023-01-29T04:11:16.432Z,99438.88
2023-01-29T04:14:01.868Z,99437.94
2023-01-29T04:16:52.760Z,99443.81
2023-01-29T04:20:02.935Z,99437.78
2023-01-29T04:22:50.908Z,99436.22
2023-01-29T04:25:45.107Z,99433.81
2023-01-29T04:28:47.476Z,99438.09
2023-01-29T04:31:43.010Z,99439.81
2023-01-29T04:34:34.384Z,99433.97
2023-01-29T04:37:43.381Z,99439.81
2023-01-29T04:40:54.866Z,99436.50
2023-01-29T04:43:52.130Z,99435.59
2023-01-29T04:47:13.025Z,99422.16
2023-01-29T04:50:09.722Z,99425.31
2023-01-29T04:53:11.365Z,99423.22
2023-01-29T04:56:20.180Z,99433.06
2023-01-29T04:59:09.470Z,99429.09
2023-01-29T05:01:54.480Z,99428.13
2023-01-29T05:04:41.516Z,99439.03
2023-01-29T05:07:30.278Z,99439.94
2023-01-29T05:10:18.651Z,99438.38
2023-01-29T05:13:07.954Z,99438.38
2023-01-29T05:16:28.175Z,99439.47
2023-01-29T05:19:15.319Z,99447.81
2023-01-29T05:22:00.441Z,99443.56
2023-01-29T05:24:45.946Z,99440.75
2023-01-29T05:27:53.957Z,99443.16
2023-01-29T05:30:39.799Z,99448.31
2023-01-29T05:33:30.407Z,99452.72
2023-01-29T05:36:15.524Z,99455.38
2023-01-29T05:39:00.217Z,99445.28
2023-01-29T05:41:45.092Z,99454.97
2023-01-29T05:44:30.057Z,99466.66
2023-01-29T05:47:19.340Z,99455.78
2023-01-29T05:50:05.744Z,99468.41
2023-01-29T05:52:59.537Z,99469.47
2023-01-29T05:55:45.548Z,99472.66
2023-01-29T05:58:31.989Z,99462.56
2023-01-29T06:01:19.758Z,99469.97
2023-01-29T06:04:04.629Z,99468.25
2023-01-29T06:06:49.564Z,99467.19
2023-01-29T06:09:34.411Z,99466.75
2023-01-29T06:12:19.416Z,99458.69
2023-01-29T06:15:04.355Z,99457.59
2023-01-29T06:17:49.045Z,99463.41
2023-01-29T06:20:33.843Z,99467.53
2023-01-29T06:23:18.554Z,99462.38
2023-01-29T06:26:09.740Z,99463.13
2023-01-29T06:28:54.807Z,99466.34
2023-01-29T06:31:40.092Z,99458.78
2023-01-29T06:34:24.967Z,99464.47
2023-01-29T06:37:09.958Z,99455.81
2023-01-29T06:39:54.884Z,99454.56
2023-01-29T06:42:39.618Z,99466.00
2023-01-29T06:45:24.616Z,99464.75
2023-01-29T06:48:09.200Z,99465.13
2023-01-29T06:50:54.926Z,99464.56
2023-01-29T06:53:39.697Z,99460.31
2023-01-29T06:56:25.220Z,99463.66
2023-01-29T06:59:11.993Z,99455.91
2023-01-29T07:01:56.731Z,99451.13
2023-01-29T07:04:42.122Z,99459.06
2023-01-29T07:07:26.697Z,99464.13
2023-01-29T07:10:11.633Z,99459.34
2023-01-29T07:12:58.553Z,99462.03
2023-01-29T07:15:44.150Z,99468.38
2023-01-29T07:18:29.479Z,99465.09
2023-01-29T07:21:14.578Z,99467.97
2023-01-29T07:23:59.493Z,99463.06
2023-01-29T07:26:44.942Z,99468.91
2023-01-29T07:29:29.796Z,99467.63
2023-01-29T07:32:14.616Z,99467.31
2023-01-29T07:34:59.225Z,99473.97
2023-01-29T07:37:44.223Z,99472.50
2023-01-29T07:40:29.078Z,99468.25
2023-01-29T07:43:14.307Z,99463.50
2023-01-29T07:46:03.838Z,99459.88
2023-01-29T07:48:48.808Z,99459.06
2023-01-29T07:51:33.792Z,99461.47
2023-01-29T07:54:18.472Z,99462.84
2023-01-29T07:57:03.349Z,99469.19
2023-01-29T07:59:48.080Z,99464.94
2023-01-29T08:02:33.190Z,99461.47
2023-01-29T08:05:18.223Z,99469.06
2023-01-29T08:08:07.381Z,99470.78
2023-01-29T08:10:52.271Z,99470.63
2023-01-29T08:13:37.201Z,99477.41
2023-01-29T08:16:22.856Z,99486.59
2023-01-29T08:19:07.930Z,99487.41
2023-01-29T08:21:52.709Z,99480.91
2023-01-29T08:24:53.215Z,99472.34
2023-01-29T08:27:40.038Z,99486.31
2023-01-29T08:30:27.403Z,99486.16
2023-01-29T08:33:12.100Z,99487.25
2023-01-29T08:35:56.885Z,99489.19
2023-01-29T08:38:41.717Z,99499.16
2023-01-29T08:41:26.679Z,99488.75
2023-01-29T08:44:12.090Z,99488.47
2023-01-29T08:46:56.867Z,99491.16
2023-01-29T08:49:41.793Z,99485.31
2023-01-29T08:52:26.754Z,99482.50
2023-01-29T08:55:12.731Z,99479.38
2023-01-29T08:57:57.389Z,99471.03
2023-01-29T09:00:42.283Z,99475.63
2023-01-29T09:03:27.292Z,99473.91
2023-01-29T09:06:13.871Z,99470.13
2023-01-29T09:08:58.730Z,99466.53
2023-01-29T09:11:44.251Z,99458.00
2023-01-29T09:14:29.089Z,99464.34
2023-01-29T09:17:13.682Z,99467.03
2023-01-29T09:19:58.660Z,99464.63
2023-01-29T09:22:43.662Z,99467.03
2023-01-29T09:25:28.975Z,99467.97
2023-01-29T09:28:13.561Z,99463.63
2023-01-29T09:31:00.594Z,99463.91
2023-01-29T09:33:45.459Z,99451.09
2023-01-29T09:36:30.107Z,99447.09
2023-01-29T09:39:14.973Z,99450.13
2023-01-29T09:41:59.591Z,99453.31
2023-01-29T09:45:10.076Z,99445.94
2023-01-29T09:48:05.152Z,99440.25
2023-01-29T09:50:54.559Z,99441.03
2023-01-29T09:53:46.972Z,99433.09
2023-01-29T09:56:31.603Z,99433.47
2023-01-29T09:59:17.895Z,99436.19
2023-01-29T10:02:03.373Z,99435.59
2023-01-29T10:05:09.693Z,99431.81
2023-01-29T10:08:09.587Z,99438.13
2023-01-29T10:11:11.016Z,99431.19
2023-01-29T10:14:22.509Z,99424.19
2023-01-29T10:17:25.493Z,99433.53
2023-01-29T10:20:28.877Z,99423.09
2023-01-29T10:23:28.539Z,99423.25
2023-01-29T10:26:13.776Z,99424.84
2023-01-29T10:29:00.668Z,99414.22
2023-01-29T10:31:51.796Z,99408.38
2023-01-29T10:34:48.025Z,99415.50
2023-01-29T10:37:41.989Z,99407.63
2023-01-29T10:41:25.572Z,99407.03
2023-01-29T10:44:29.892Z,99395.31
2023-01-29T10:47:53.542Z,99390.28
2023-01-29T10:51:18.396Z,99375.41
2023-01-29T10:54:26.412Z,99378.59
2023-01-29T10:57:28.693Z,99369.84
2023-01-29T11:00:20.907Z,99373.19
2023-01-29T11:03:28.806Z,99368.91
2023-01-29T11:06:30.322Z,99372.22
2023-01-29T11:09:41.078Z,99363.88
2023-01-29T11:12:30.860Z,99363.72
2023-01-29T11:15:22.009Z,99362.44
2023-01-29T11:18:13.068Z,99359.78
2023-01-29T11:21:04.058Z,99347.94
2023-01-29T11:23:48.798Z,99350.53
2023-01-29T11:26:37.831Z,99353.22
2023-01-29T11:29:38.744Z,99341.22
2023-01-29T11:32:23.364Z,99343.41
2023-01-29T11:35:14.082Z,99341.03
2023-01-29T11:38:19.277Z,99342.13
2023-01-29T11:41:17.886Z,99323.00
2023-01-29T11:44:17.813Z,99329.78
2023-01-29T11:47:26.886Z,99329.91
2023-01-29T11:50:21.339Z,99327.84
2023-01-29T11:53:07.057Z,99317.56
2023-01-29T11:55:52.431Z,99312.19
2023-01-29T11:58:37.333Z,99309.00
2023-01-29T12:01:36.327Z,99315.44
2023-01-29T12:04:25.699Z,99317.78
2023-01-29T12:07:15.837Z,99308.13
2023-01-29T12:10:00.956Z,99309.91
2023-01-29T12:12:46.251Z,99307.03
2023-01-29T12:15:30.907Z,99305.16
2023-01-29T12:18:18.849Z,99303.13
2023-01-29T12:21:09.875Z,99300.94
2023-01-29T12:24:20.771Z,99307.44
2023-01-29T12:27:24.710Z,99293.66
2023-01-29T12:30:19.118Z,99301.41
2023-01-29T12:33:20.192Z,99292.25
2023-01-29T12:36:11.942Z,99295.38
2023-01-29T12:38:58.600Z,99294.75
2023-01-29T12:41:46.529Z,99289.06
2023-01-29T12:44:54.965Z,99284.00
2023-01-29T12:48:05.502Z,99288.38
2023-01-29T12:50:53.020Z,99293.78
2023-01-29T12:53:39.435Z,99287.47
2023-01-29T12:56:36.402Z,99293.00
2023-01-29T12:59:29.366Z,99291.41
2023-01-29T13:02:35.843Z,99287.97
2023-01-29T13:05:23.400Z,99288.09
2023-01-29T13:08:42.797Z,99289.63
2023-01-29T13:11:37.378Z,99278.09
2023-01-29T13:14:35.340Z,99278.91
2023-01-29T13:17:30.606Z,99279.06
2023-01-29T13:20:30.391Z,99281.47
2023-01-29T13:23:36.801Z,99278.28
2023-01-29T13:26:22.590Z,99275.44
2023-01-29T13:29:32.200Z,99268.81
2023-01-29T13:32:50.777Z,99274.66
2023-01-29T13:35:44.350Z,99268.16
2023-01-29T13:38:32.995Z,99269.41
2023-01-29T13:41:17.995Z,99268.31
2023-01-29T13:44:07.461Z,99268.66
2023-01-29T13:46:59.534Z,99269.47
2023-01-29T13:49:55.761Z,99267.72
2023-01-29T13:52:43.849Z,99266.31
2023-01-29T13:55:32.894Z,99272.13
2023-01-29T13:58:43.140Z,99274.81
2023-01-29T14:01:46.471Z,99272.44
2023-01-29T14:04:31.994Z,99269.25
2023-01-29T14:07:35.423Z,99266.88
2023-01-29T14:10:23.439Z,99261.97
2023-01-29T14:13:11.280Z,99272.75
2023-01-29T14:15:55.848Z,99270.50
2023-01-29T14:19:07.097Z,99266.53
2023-01-29T14:21:52.609Z,99259.41
2023-01-29T14:24:42.023Z,99266.78
2023-01-29T14:27:27.718Z,99264.25
2023-01-29T14:30:17.596Z,99269.31
2023-01-29T14:33:02.947Z,99260.94
2023-01-29T14:35:52.504Z,99263.00
2023-01-29T14:38:39.478Z,99264.56
2023-01-29T14:41:33.219Z,99258.56
2023-01-29T14:44:55.931Z,99256.84
2023-01-29T14:47:40.745Z,99254.44
2023-01-29T14:50:28.577Z,99254.44
2023-01-29T14:53:25.607Z,99252.22
2023-01-29T14:56:26.457Z,99251.56
2023-01-29T14:59:26.344Z,99249.84
2023-01-29T15:02:26.600Z,99253.47
2023-01-29T15:05:18.103Z,99249.03
2023-01-29T15:08:13.371Z,99245.72
2023-01-29T15:11:21.202Z,99249.69
2023-01-29T15:14:16.148Z,99251.88
2023-01-29T15:17:19.091Z,99242.41
2023-01-29T15:20:35.079Z,99242.25
2023-01-29T15:23:27.036Z,99239.88
2023-01-29T15:26:18.627Z,99246.81
2023-01-29T15:29:05.272Z,99240.97
2023-01-29T15:31:50.526Z,99242.56
2023-01-29T15:34:35.670Z,99244.16
2023-01-29T15:37:39.541Z,99243.50
2023-01-29T15:40:24.907Z,99251.06
2023-01-29T15:43:28.798Z,99247.63
2023-01-29T15:46:34.176Z,99255.19
2023-01-29T15:49:29.792Z,99253.47
2023-01-29T15:52:34.465Z,99258.53
2023-01-29T15:55:22.712Z,99259.16
2023-01-29T15:58:15.238Z,99262.94
2023-01-29T16:01:01.248Z,99260.88
2023-01-29T16:03:49.513Z,99268.47
2023-01-29T16:06:40.260Z,99276.72
2023-01-29T16:09:26.678Z,99271.78
2023-01-29T16:12:12.811Z,99278.09
2023-01-29T16:14:57.803Z,99280.63
2023-01-29T16:17:44.553Z,99291.22
2023-01-29T16:20:29.467Z,99286.03
2023-01-29T16:23:21.964Z,99283.78
2023-01-29T16:26:12.194Z,99287.59
2023-01-29T16:29:02.664Z,99283.00
2023-01-29T16:31:50.901Z,99282.06
2023-01-29T16:34:44.172Z,99279.66
2023-01-29T16:37:35.093Z,99275.56
2023-01-29T16:40:32.457Z,99279.94
2023-01-29T16:43:17.527Z,99280.63
2023-01-29T16:46:02.886Z,99285.50
2023-01-29T16:48:47.881Z,99282.34
2023-01-29T16:51:39.150Z,99278.88
2023-01-29T16:54:25.596Z,99281.25
2023-01-29T16:57:17.572Z,99272.25
2023-01-29T17:00:07.936Z,99265.59
2023-01-29T17:02:58.847Z,99265.47
2023-01-29T17:05:44.860Z,99271.16
2023-01-29T17:08:33.334Z,99257.72
2023-01-29T17:11:35.697Z,99258.00
2023-01-29T17:14:20.864Z,99258.00
2023-01-29T17:17:14.542Z,99255.66
2023-01-29T17:20:13.480Z,99257.22
2023-01-29T17:22:58.310Z,99251.38
2023-01-29T17:25:43.895Z,99249.50
2023-01-29T17:28:30.362Z,99254.56
2023-01-29T17:31:15.000Z,99244.75
2023-01-29T17:33:59.839Z,99250.59
2023-01-29T17:36:45.355Z,99243.16
2023-01-29T17:39:30.037Z,99237.44
2023-01-29T17:42:15.192Z,99237.63
2023-01-29T17:44:59.869Z,99228.31
2023-01-29T17:47:44.933Z,99235.09
2023-01-29T17:50:31.719Z,99235.38
2023-01-29T17:53:16.740Z,99231.25
2023-01-29T17:56:01.753Z,99229.69
2023-01-29T17:58:47.028Z,99223.03
2023-01-29T18:01:31.943Z,99218.00
2023-01-29T18:04:17.069Z,99225.72
2023-01-29T18:07:02.162Z,99223.34
2023-01-29T18:09:46.720Z,99220.97
2023-01-29T18:12:31.402Z,99222.84
2023-01-29T18:15:16.717Z,99219.53
2023-01-29T18:18:02.042Z,99213.16
2023-01-29T18:20:46.742Z,99212.38
2023-01-29T18:23:32.045Z,99206.69
2023-01-29T18:26:17.246Z,99202.44
2023-01-29T18:29:03.372Z,99201.63
2023-01-29T18:31:49.104Z,99204.03
2023-01-29T18:34:34.222Z,99191.53
2023-01-29T18:37:18.869Z,99193.13
2023-01-29T18:40:05.348Z,99189.50
2023-01-29T18:42:50.489Z,99181.44
2023-01-29T18:45:35.985Z,99174.13
2023-01-29T18:48:21.190Z,99176.31
2023-01-29T18:51:06.382Z,99175.50
2023-01-29T18:53:51.683Z,99177.00
2023-01-29T18:56:36.529Z,99176.47
2023-01-29T18:59:21.298Z,99173.59
2023-01-29T19:02:06.963Z,99171.28
2023-01-29T19:04:51.704Z,99174.53
2023-01-29T19:07:36.818Z,99178.63
2023-01-29T19:10:22.151Z,99182.91
2023-01-29T19:13:07.232Z,99180.50
2023-01-29T19:15:52.031Z,99184.47
2023-01-29T19:18:37.265Z,99181.66
2023-01-29T19:21:23.464Z,99171.56
2023-01-29T19:24:09.625Z,99175.75
2023-01-29T19:26:54.784Z,99168.81
2023-01-29T19:29:39.803Z,99170.09
2023-01-29T19:32:25.565Z,99161.59
2023-01-29T19:35:10.552Z,99154.03
2023-01-29T19:37:55.325Z,99154.66
2023-01-29T19:40:39.744Z,99156.41
2023-01-29T19:43:29.858Z,99165.56
2023-01-29T19:46:15.675Z,99166.00
2023-01-29T19:49:02.910Z,99174.72
2023-01-29T19:51:47.725Z,99178.53
2023-01-29T19:54:32.580Z,99176.00
2023-01-29T19:57:17.520Z,99172.91
2023-01-29T20:00:04.984Z,99173.84
2023-01-29T20:02:50.128Z,99165.97
2023-01-29T20:05:36.772Z,99178.44
2023-01-29T20:08:23.137Z,99184.94
2023-01-29T20:11:09.310Z,99178.94
2023-01-29T20:13:54.097Z,99167.75
2023-01-29T20:16:38.923Z,99167.47
2023-01-29T20:19:23.497Z,99159.91
2023-01-29T20:22:07.915Z,99155.78
2023-01-29T20:24:53.060Z,99163.97
2023-01-29T20:27:38.070Z,99147.72
2023-01-29T20:30:22.873Z,99153.13
2023-01-29T20:33:08.599Z,99150.59
2023-01-29T20:35:55.048Z,99144.28
2023-01-29T20:38:39.889Z,99135.00
2023-01-29T20:41:24.646Z,99128.69
2023-01-29T20:44:09.864Z,99122.50
2023-01-29T20:46:55.636Z,99117.16
2023-01-29T20:49:40.656Z,99112.38
2023-01-29T20:52:25.971Z,99118.91
2023-01-29T20:55:12.154Z,99111.00
2023-01-29T20:58:06.357Z,99106.75
2023-01-29T21:00:52.500Z,99120.97
2023-01-29T21:03:38.749Z,99126.97
2023-01-29T21:06:24.977Z,99125.00
2023-01-29T21:09:09.950Z,99132.63
2023-01-29T21:11:55.013Z,99124.44
2023-01-29T21:14:39.811Z,99135.84
2023-01-29T21:17:25.060Z,99123.63
2023-01-29T21:20:10.823Z,99121.25
2023-01-29T21:22:55.760Z,99133.25
2023-01-29T21:25:40.767Z,99125.34
2023-01-29T21:28:25.559Z,99130.22
2023-01-29T21:31:14.177Z,99124.38
2023-01-29T21:33:59.086Z,99119.03
2023-01-29T21:36:46.100Z,99120.13
2023-01-29T21:39:30.869Z,99115.72
2023-01-29T21:42:34.053Z,99107.34
2023-01-29T21:45:19.408Z,99102.00
2023-01-29T21:48:04.603Z,99098.84
2023-01-29T21:50:49.777Z,99094.72
2023-01-29T21:53:34.526Z,99092.97
2023-01-29T21:56:19.567Z,99092.66
2023-01-29T21:59:04.317Z,99091.56
2023-01-29T22:01:49.405Z,99082.72
2023-01-29T22:04:34.373Z,99084.44
2023-01-29T22:07:18.952Z,99081.63
2023-01-29T22:10:04.717Z,99078.59
2023-01-29T22:12:49.451Z,99080.19
2023-01-29T22:15:34.062Z,99077.66
2023-01-29T22:18:18.892Z,99071.97
2023-01-29T22:21:03.944Z,99077.16
2023-01-29T22:23:51.150Z,99062.47
2023-01-29T22:26:36.241Z,99058.16
2023-01-29T22:29:21.091Z,99048.16
2023-01-29T22:32:06.723Z,99053.03
2023-01-29T22:34:51.685Z,99044.16
2023-01-29T22:37:36.142Z,99043.97
2023-01-29T22:40:21.086Z,99040.94
2023-01-29T22:43:06.287Z,99040.16
2023-01-29T22:45:51.347Z,99038.41
2023-01-29T22:48:36.087Z,99046.78
2023-01-29T22:51:20.883Z,99037.44
2023-01-29T22:54:05.519Z,99035.84
2023-01-29T22:56:49.992Z,99041.56
2023-01-29T22:59:34.965Z,99031.66
2023-01-29T23:02:20.602Z,99036.84
2023-01-29T23:05:06.555Z,99027.41
2023-01-29T23:07:51.157Z,99020.75
2023-01-29T23:10:35.777Z,99021.72
2023-01-29T23:13:20.293Z,99012.09
2023-01-29T23:16:05.538Z,99016.06
2023-01-29T23:18:52.346Z,99006.13
2023-01-29T23:21:37.954Z,99007.38
2023-01-29T23:24:22.718Z,99003.13
2023-01-29T23:27:13.836Z,98995.28
2023-01-29T23:29:58.622Z,98999.09
2023-01-29T23:32:43.746Z,98999.09
2023-01-29T23:35:28.585Z,98986.91
2023-01-29T23:38:13.200Z,98991.94
2023-01-29T23:40:59.129Z,98998.88
2023-01-29T23:43:44.040Z,98991.78
2023-01-29T23:46:29.442Z,98995.09
2023-01-29T23:49:13.982Z,98985.00
2023-01-29T23:51:59.147Z,98974.91
2023-01-29T23:54:43.843Z,98970.00
2023-01-29T23:57:28.420Z,98972.38
